Time;durP1;ratioP1;P1;durP2;ratioP2;P2;SDS_P1;SDS_P2;PMS_P1;PMS_P2;Temp;Humidity;BMP_temperature;BMP_pressure;BME280_temperature;BME280_humidity;BME280_pressure;Samples;Min_cycle;Max_cycle;Signal;HPM_P1;HPM_P2
2022/08/25 00:02:07;;;;;;;2.33;1.80;;;;;;;;;;5055758;28;20225;-85
2022/08/25 00:04:35;;;;;;;1.90;1.80;;;;;;;;;;5055061;28;20298;-85
2022/08/25 00:07:05;;;;;;;2.10;2.00;;;;;;;;;;5054413;28;20202;-85
2022/08/25 00:09:35;;;;;;;2.65;2.00;;;;;;;;;;5055145;28;20208;-85
2022/08/25 00:12:04;;;;;;;2.40;2.17;;;;;;;;;;5055208;28;20668;-85
2022/08/25 00:14:35;;;;;;;1.85;1.75;;;;;;;;;;5054273;28;20205;-84
2022/08/25 00:17:03;;;;;;;1.95;1.85;;;;;;;;;;5055008;28;20194;-84
2022/08/25 00:19:35;;;;;;;2.17;1.85;;;;;;;;;;5055256;28;20229;-85
2022/08/25 00:22:04;;;;;;;2.00;1.90;;;;;;;;;;5055590;28;20232;-85
2022/08/25 00:24:33;;;;;;;1.90;1.80;;;;;;;;;;5055226;28;20317;-84
2022/08/25 00:27:01;;;;;;;1.73;1.63;;;;;;;;;;5054333;28;20693;-85
2022/08/25 00:29:30;;;;;;;2.10;2.00;;;;;;;;;;5054261;28;20577;-84
2022/08/25 00:31:58;;;;;;;2.58;2.38;;;;;;;;;;5054858;28;20221;-85
2022/08/25 00:34:30;;;;;;;2.17;2.08;;;;;;;;;;5055007;28;20229;-84
2022/08/25 00:36:57;;;;;;;2.20;2.10;;;;;;;;;;5054364;28;20229;-85
2022/08/25 00:39:26;;;;;;;3.85;1.92;;;;;;;;;;5056602;28;20280;-85
2022/08/25 00:41:57;;;;;;;1.80;1.70;;;;;;;;;;5066672;28;20573;-84
2022/08/25 00:44:27;;;;;;;1.83;1.73;;;;;;;;;;5056297;28;20275;-84
2022/08/25 00:46:59;;;;;;;2.53;2.33;;;;;;;;;;5053833;28;20209;-85
2022/08/25 00:49:30;;;;;;;1.80;1.70;;;;;;;;;;5053582;28;20260;-85
2022/08/25 00:52:03;;;;;;;3.38;2.38;;;;;;;;;;5059871;28;20333;-84
2022/08/25 00:54:34;;;;;;;1.90;1.80;;;;;;;;;;5059314;28;20288;-83
2022/08/25 00:57:05;;;;;;;2.00;1.90;;;;;;;;;;5058627;28;20292;-84
2022/08/25 00:59:33;;;;;;;1.73;1.63;;;;;;;;;;5058761;28;20288;-84
2022/08/25 01:02:01;;;;;;;2.13;2.03;;;;;;;;;;5058634;28;20796;-84
2022/08/25 01:04:29;;;;;;;2.10;2.00;;;;;;;;;;5058644;28;20316;-84
2022/08/25 01:06:57;;;;;;;2.00;1.80;;;;;;;;;;5058123;28;20209;-84
2022/08/25 01:09:25;;;;;;;2.30;2.10;;;;;;;;;;5058793;28;20292;-84
2022/08/25 01:11:53;;;;;;;1.80;1.70;;;;;;;;;;5058107;28;20308;-84
2022/08/25 01:14:22;;;;;;;2.08;1.80;;;;;;;;;;5058386;28;20236;-84
2022/08/25 01:16:51;;;;;;;2.55;1.90;;;;;;;;;;5058443;28;20284;-84
2022/08/25 01:19:19;;;;;;;2.05;1.92;;;;;;;;;;5058861;28;20667;-85
2022/08/25 01:21:51;;;;;;;2.40;2.20;;;;;;;;;;5058643;28;20772;-84
2022/08/25 01:24:37;;;;;;;2.67;2.13;;;;;;;;;;5058775;28;20312;-84
2022/08/25 01:27:06;;;;;;;2.30;2.10;;;;;;;;;;5058677;28;20197;-84
2022/08/25 01:29:34;;;;;;;4.43;2.05;;;;;;;;;;5058750;28;20208;-85
2022/08/25 01:32:05;;;;;;;2.08;1.95;;;;;;;;;;5058562;28;20225;-84
2022/08/25 01:34:36;;;;;;;2.15;2.05;;;;;;;;;;5058707;28;20293;-85
2022/08/25 01:37:06;;;;;;;1.85;1.75;;;;;;;;;;5058727;28;20197;-84
2022/08/25 01:39:35;;;;;;;2.15;1.90;;;;;;;;;;5058637;28;20236;-84
2022/08/25 01:42:18;;;;;;;2.10;1.90;;;;;;;;;;5058378;28;20283;-84
2022/08/25 01:44:48;;;;;;;2.00;1.83;;;;;;;;;;5058336;28;20304;-84
2022/08/25 01:47:16;;;;;;;2.35;1.88;;;;;;;;;;5058132;28;20284;-84
2022/08/25 01:49:44;;;;;;;2.30;2.10;;;;;;;;;;5058372;28;20580;-84
2022/08/25 01:52:20;;;;;;;1.95;1.85;;;;;;;;;;5058309;28;20261;-84
2022/08/25 01:54:47;;;;;;;2.25;2.05;;;;;;;;;;5058517;28;20284;-84
2022/08/25 01:57:15;;;;;;;2.30;2.10;;;;;;;;;;5057797;28;20217;-84
2022/08/25 01:59:43;;;;;;;2.88;2.67;;;;;;;;;;5058249;28;20292;-84
2022/08/25 02:02:11;;;;;;;2.47;2.28;;;;;;;;;;5055603;28;20225;-84
2022/08/25 02:04:38;;;;;;;2.15;2.05;;;;;;;;;;5055236;28;20313;-84
2022/08/25 02:07:08;;;;;;;2.10;2.00;;;;;;;;;;5055064;28;20288;-84
2022/08/25 02:09:38;;;;;;;2.30;2.10;;;;;;;;;;5055183;28;20200;-84
2022/08/25 02:12:07;;;;;;;3.67;2.05;;;;;;;;;;5054612;28;20304;-84
2022/08/25 02:14:35;;;;;;;2.40;2.20;;;;;;;;;;5055239;28;20198;-84
2022/08/25 02:17:03;;;;;;;2.40;2.03;;;;;;;;;;5054632;28;20296;-84
2022/08/25 02:19:31;;;;;;;2.28;2.08;;;;;;;;;;5054941;28;20304;-84
2022/08/25 02:21:59;;;;;;;2.45;2.28;;;;;;;;;;5054846;28;20229;-84
2022/08/25 02:24:27;;;;;;;3.00;2.80;;;;;;;;;;5054556;28;20212;-85
2022/08/25 02:26:56;;;;;;;2.60;2.35;;;;;;;;;;5054264;28;20209;-84
2022/08/25 02:29:24;;;;;;;2.20;2.10;;;;;;;;;;5054620;28;20197;-84
2022/08/25 02:31:52;;;;;;;3.17;2.28;;;;;;;;;;5054458;28;20225;-84
2022/08/25 02:34:19;;;;;;;2.33;2.22;;;;;;;;;;5054616;28;20296;-84
2022/08/25 02:36:47;;;;;;;2.40;2.20;;;;;;;;;;5054450;28;20198;-84
2022/08/25 02:39:14;;;;;;;2.85;2.65;;;;;;;;;;5053953;28;20400;-84
2022/08/25 02:41:42;;;;;;;3.42;2.92;;;;;;;;;;5054471;28;20312;-84
2022/08/25 02:44:11;;;;;;;2.97;2.70;;;;;;;;;;5054596;28;20197;-84
2022/08/25 02:46:39;;;;;;;3.90;2.53;;;;;;;;;;5053803;28;20292;-84
2022/08/25 02:49:07;;;;;;;2.35;2.20;;;;;;;;;;5054338;28;20202;-84
2022/08/25 02:51:36;;;;;;;2.40;2.20;;;;;;;;;;5053906;28;20320;-84
2022/08/25 02:54:05;;;;;;;2.70;2.50;;;;;;;;;;5054501;28;20285;-84
2022/08/25 02:56:34;;;;;;;2.83;2.63;;;;;;;;;;5053583;28;20240;-84
2022/08/25 02:59:02;;;;;;;3.17;2.88;;;;;;;;;;5054345;28;20288;-84
2022/08/25 03:01:32;;;;;;;2.60;2.40;;;;;;;;;;5053890;28;20236;-84
2022/08/25 03:04:00;;;;;;;2.72;2.53;;;;;;;;;;5054360;28;20202;-84
2022/08/25 03:06:28;;;;;;;2.83;2.53;;;;;;;;;;5053936;28;20596;-84
2022/08/25 03:08:56;;;;;;;4.03;3.25;;;;;;;;;;5053809;28;20197;-84
2022/08/25 03:11:31;;;;;;;2.92;2.53;;;;;;;;;;5053989;28;20289;-84
2022/08/25 03:13:59;;;;;;;3.75;3.28;;;;;;;;;;5053150;28;20239;-84
2022/08/25 03:16:28;;;;;;;2.90;2.60;;;;;;;;;;5053853;28;20233;-85
2022/08/25 03:18:57;;;;;;;3.55;3.20;;;;;;;;;;5054067;28;20209;-84
2022/08/25 03:21:25;;;;;;;3.28;3.03;;;;;;;;;;5053604;28;20233;-84
2022/08/25 03:23:52;;;;;;;2.95;2.75;;;;;;;;;;5053521;28;20269;-84
2022/08/25 03:29:05;;;;;;;2.83;2.55;;;;;;;;;;5053941;28;20624;-84
2022/08/25 03:31:33;;;;;;;2.72;2.53;;;;;;;;;;5053527;28;20673;-84
2022/08/25 03:34:03;;;;;;;3.30;3.10;;;;;;;;;;5053421;28;20232;-84
2022/08/25 03:36:30;;;;;;;2.60;2.40;;;;;;;;;;5053134;28;20203;-84
2022/08/25 03:38:58;;;;;;;3.50;2.67;;;;;;;;;;5053186;28;20233;-84
2022/08/25 03:41:31;;;;;;;3.30;3.10;;;;;;;;;;5053318;28;20233;-85
2022/08/25 03:43:59;;;;;;;3.35;3.10;;;;;;;;;;5053554;28;20712;-84
2022/08/25 03:46:30;;;;;;;3.45;3.15;;;;;;;;;;5053169;28;20249;-84
2022/08/25 03:49:00;;;;;;;3.88;3.58;;;;;;;;;;5053139;28;20202;-84
2022/08/25 03:51:33;;;;;;;3.50;3.30;;;;;;;;;;5052690;28;20236;-84
2022/08/25 03:54:01;;;;;;;2.65;2.45;;;;;;;;;;5053490;28;20204;-84
2022/08/25 03:56:29;;;;;;;3.83;3.50;;;;;;;;;;5053017;28;20193;-84
2022/08/25 03:58:57;;;;;;;2.90;2.70;;;;;;;;;;5053055;28;20233;-84
2022/08/25 04:01:25;;;;;;;2.97;2.78;;;;;;;;;;5053246;28;20292;-82
2022/08/25 04:03:52;;;;;;;3.78;3.42;;;;;;;;;;5053358;28;20202;-85
2022/08/25 04:06:20;;;;;;;2.97;2.78;;;;;;;;;;5052692;28;20248;-84
2022/08/25 04:08:51;;;;;;;3.03;2.83;;;;;;;;;;5053358;28;20205;-84
2022/08/25 04:11:22;;;;;;;2.70;2.50;;;;;;;;;;5053278;28;20658;-83
2022/08/25 04:13:50;;;;;;;3.70;3.40;;;;;;;;;;5053233;28;20229;-84
2022/08/25 04:16:21;;;;;;;3.45;3.15;;;;;;;;;;5052958;28;20202;-84
2022/08/25 04:18:50;;;;;;;2.95;2.72;;;;;;;;;;5053061;28;20292;-84
2022/08/25 04:21:19;;;;;;;2.72;2.53;;;;;;;;;;5052906;28;20233;-84
2022/08/25 04:23:49;;;;;;;2.67;2.47;;;;;;;;;;5053135;28;20228;-84
2022/08/25 04:26:19;;;;;;;2.90;2.70;;;;;;;;;;5051944;28;20311;-85
2022/08/25 04:28:47;;;;;;;2.53;2.33;;;;;;;;;;5052858;28;20228;-84
2022/08/25 04:31:16;;;;;;;3.50;2.70;;;;;;;;;;5052614;28;20728;-84
2022/08/25 04:33:46;;;;;;;2.83;2.63;;;;;;;;;;5053139;28;20244;-84
2022/08/25 04:36:15;;;;;;;2.35;2.15;;;;;;;;;;5052785;28;20611;-84
2022/08/25 04:38:45;;;;;;;2.95;2.75;;;;;;;;;;5052862;28;20248;-84
2022/08/25 04:41:16;;;;;;;3.03;2.75;;;;;;;;;;5052562;28;20244;-84
2022/08/25 04:43:45;;;;;;;3.10;2.90;;;;;;;;;;5052425;28;20289;-84
2022/08/25 04:46:17;;;;;;;2.88;2.65;;;;;;;;;;5058299;28;20222;-79
2022/08/25 04:48:45;;;;;;;2.50;2.30;;;;;;;;;;5053623;28;20202;-79
2022/08/25 04:51:15;;;;;;;2.33;2.22;;;;;;;;;;5053470;28;20198;-79
2022/08/25 04:53:43;;;;;;;3.67;3.33;;;;;;;;;;5053482;28;20756;-79
2022/08/25 04:56:18;;;;;;;2.80;2.60;;;;;;;;;;5053529;28;20284;-79
2022/08/25 04:58:46;;;;;;;2.75;2.55;;;;;;;;;;5053599;28;20236;-79
2022/08/25 05:01:18;;;;;;;3.22;2.90;;;;;;;;;;5053404;28;20232;-80
2022/08/25 05:03:47;;;;;;;2.83;2.58;;;;;;;;;;5052964;28;20205;-80
2022/08/25 05:06:15;;;;;;;2.83;2.60;;;;;;;;;;5052982;28;20266;-80
2022/08/25 05:08:43;;;;;;;2.83;2.53;;;;;;;;;;5053335;28;20277;-79
2022/08/25 05:11:15;;;;;;;3.40;2.65;;;;;;;;;;5053119;28;20281;-80
2022/08/25 05:13:45;;;;;;;2.90;2.63;;;;;;;;;;5053387;28;20677;-80
2022/08/25 05:16:12;;;;;;;2.45;2.25;;;;;;;;;;5052837;28;20237;-80
2022/08/25 05:18:40;;;;;;;2.60;2.40;;;;;;;;;;5052433;28;20281;-80
2022/08/25 05:21:11;;;;;;;2.42;2.20;;;;;;;;;;5052952;28;20269;-80
2022/08/25 05:23:39;;;;;;;2.70;2.50;;;;;;;;;;5053157;28;20250;-80
2022/08/25 05:26:10;;;;;;;2.75;2.55;;;;;;;;;;5052598;28;20210;-79
2022/08/25 05:28:39;;;;;;;3.10;2.30;;;;;;;;;;5053047;28;20212;-80
2022/08/25 05:31:10;;;;;;;3.13;2.60;;;;;;;;;;5053065;28;20197;-80
2022/08/25 05:33:39;;;;;;;2.35;2.17;;;;;;;;;;5053184;28;20316;-80
2022/08/25 05:36:08;;;;;;;2.90;2.60;;;;;;;;;;5054110;28;20297;-80
2022/08/25 05:38:36;;;;;;;2.53;2.33;;;;;;;;;;5056897;28;20206;-80
2022/08/25 05:41:08;;;;;;;2.50;2.30;;;;;;;;;;5056622;28;20288;-80
2022/08/25 05:43:38;;;;;;;3.40;2.35;;;;;;;;;;5056739;28;20275;-79
2022/08/25 05:46:08;;;;;;;2.58;2.42;;;;;;;;;;5055602;28;20205;-80
2022/08/25 05:48:36;;;;;;;2.15;2.00;;;;;;;;;;5056548;28;20324;-80
2022/08/25 05:51:09;;;;;;;2.38;2.28;;;;;;;;;;5056305;28;20266;-80
2022/08/25 05:53:38;;;;;;;2.60;2.40;;;;;;;;;;5056594;28;20245;-81
2022/08/25 05:56:06;;;;;;;4.15;2.58;;;;;;;;;;5056421;28;20292;-81
2022/08/25 05:58:34;;;;;;;3.58;2.53;;;;;;;;;;5057179;28;20198;-80
2022/08/25 06:02:39;;;;;;;2.80;2.60;;;;;;;;;;5077168;28;20200;-80
2022/08/25 06:03:53;;;;;;;2.22;2.13;;;;;;;;;;5076065;28;20205;-80
2022/08/25 06:06:21;;;;;;;3.38;2.95;;;;;;;;;;5060971;28;20227;-80
2022/08/25 06:08:49;;;;;;;3.22;2.95;;;;;;;;;;5056287;28;20604;-80
2022/08/25 06:11:16;;;;;;;3.42;3.03;;;;;;;;;;5056064;28;20202;-80
2022/08/25 06:13:44;;;;;;;2.97;2.70;;;;;;;;;;5056316;28;20301;-81
2022/08/25 06:16:11;;;;;;;3.88;3.58;;;;;;;;;;5056115;28;20209;-80
2022/08/25 06:18:39;;;;;;;2.90;2.70;;;;;;;;;;5056138;28;20674;-80
2022/08/25 06:21:14;;;;;;;3.72;3.42;;;;;;;;;;5056533;28;20237;-80
2022/08/25 06:23:41;;;;;;;2.85;2.65;;;;;;;;;;5056459;28;20616;-80
2022/08/25 06:26:11;;;;;;;3.35;3.05;;;;;;;;;;5056033;28;20653;-81
2022/08/25 06:28:39;;;;;;;2.90;2.70;;;;;;;;;;5056164;28;20313;-80
2022/08/25 06:31:07;;;;;;;2.47;2.22;;;;;;;;;;5055863;28;20240;-80
2022/08/25 06:33:34;;;;;;;2.40;2.20;;;;;;;;;;5055824;28;20235;-80
2022/08/25 06:36:02;;;;;;;2.20;2.00;;;;;;;;;;5056069;28;20297;-80
2022/08/25 06:38:31;;;;;;;3.40;2.53;;;;;;;;;;5055661;28;20566;-80
2022/08/25 06:40:58;;;;;;;2.40;2.20;;;;;;;;;;5055994;28;20202;-81
2022/08/25 06:43:26;;;;;;;2.40;2.28;;;;;;;;;;5055231;28;20313;-80
2022/08/25 06:45:54;;;;;;;2.88;2.20;;;;;;;;;;5055482;28;20205;-80
2022/08/25 06:48:22;;;;;;;2.70;2.50;;;;;;;;;;5054954;28;20663;-80
2022/08/25 06:50:50;;;;;;;3.03;2.78;;;;;;;;;;5055962;28;20206;-80
2022/08/25 06:53:17;;;;;;;3.13;2.85;;;;;;;;;;5056840;28;20336;-79
2022/08/25 06:55:55;;;;;;;3.20;2.90;;;;;;;;;;5057513;28;20244;-78
2022/08/25 06:58:22;;;;;;;3.10;2.90;;;;;;;;;;5057912;28;20591;-79
2022/08/25 07:00:50;;;;;;;4.18;3.03;;;;;;;;;;5076988;28;20212;-81
2022/08/25 07:03:17;;;;;;;3.92;3.63;;;;;;;;;;5075799;28;20638;-81
2022/08/25 07:05:52;;;;;;;3.22;3.03;;;;;;;;;;5066576;28;20241;-82
2022/08/25 07:08:20;;;;;;;2.83;2.60;;;;;;;;;;5055911;28;20232;-82
2022/08/25 07:10:49;;;;;;;2.88;2.65;;;;;;;;;;5056596;28;20288;-82
2022/08/25 07:13:17;;;;;;;5.20;3.80;;;;;;;;;;5057569;28;20693;-81
2022/08/25 07:15:44;;;;;;;3.92;3.63;;;;;;;;;;5056868;28;20236;-82
2022/08/25 07:18:13;;;;;;;4.25;3.92;;;;;;;;;;5055635;28;20201;-81
2022/08/25 07:20:41;;;;;;;3.05;2.80;;;;;;;;;;5056807;28;20216;-81
2022/08/25 07:23:09;;;;;;;4.38;4.07;;;;;;;;;;5056480;28;20693;-81
2022/08/25 07:25:36;;;;;;;5.95;3.65;;;;;;;;;;5056905;28;20201;-81
2022/08/25 07:28:05;;;;;;;3.60;3.30;;;;;;;;;;5056035;28;20736;-81
2022/08/25 07:30:33;;;;;;;6.70;3.75;;;;;;;;;;5056018;28;20236;-81
2022/08/25 07:33:01;;;;;;;2.90;2.70;;;;;;;;;;5055342;28;20268;-81
2022/08/25 07:35:31;;;;;;;3.67;3.40;;;;;;;;;;5054654;28;20725;-81
2022/08/25 07:37:59;;;;;;;3.10;2.80;;;;;;;;;;5056303;28;20194;-82
2022/08/25 07:40:30;;;;;;;3.88;3.58;;;;;;;;;;5056124;28;20236;-82
2022/08/25 07:43:00;;;;;;;4.50;4.10;;;;;;;;;;5055861;28;20229;-81
2022/08/25 07:45:31;;;;;;;3.17;2.97;;;;;;;;;;5056487;28;20240;-81
2022/08/25 07:48:00;;;;;;;3.67;3.38;;;;;;;;;;5056317;28;20226;-81
2022/08/25 07:50:30;;;;;;;4.00;3.70;;;;;;;;;;5053321;28;20673;-81
2022/08/25 07:52:57;;;;;;;3.72;3.42;;;;;;;;;;5052919;28;20283;-81
2022/08/25 07:55:27;;;;;;;4.03;3.63;;;;;;;;;;5054191;28;20266;-81
2022/08/25 07:57:55;;;;;;;3.50;3.20;;;;;;;;;;5053789;28;20233;-81
2022/08/25 08:00:26;;;;;;;3.95;3.65;;;;;;;;;;5069354;28;20270;-81
2022/08/25 08:02:55;;;;;;;5.50;4.45;;;;;;;;;;5073864;28;20307;-82
2022/08/25 08:05:23;;;;;;;4.55;4.15;;;;;;;;;;5066422;28;20241;-82
2022/08/25 08:07:50;;;;;;;4.97;4.55;;;;;;;;;;5053407;28;20685;-82
2022/08/25 08:10:18;;;;;;;4.40;4.00;;;;;;;;;;5053376;28;20296;-82
2022/08/25 08:12:45;;;;;;;6.75;4.50;;;;;;;;;;5053728;28;20243;-81
2022/08/25 08:15:13;;;;;;;3.58;3.38;;;;;;;;;;5053682;28;20297;-81
2022/08/25 08:17:41;;;;;;;4.65;4.25;;;;;;;;;;5053327;28;20214;-81
2022/08/25 08:20:12;;;;;;;4.78;4.28;;;;;;;;;;5053718;28;20229;-81
2022/08/25 08:22:44;;;;;;;5.05;4.55;;;;;;;;;;5053113;28;20264;-81
2022/08/25 08:25:12;;;;;;;4.90;4.22;;;;;;;;;;5053585;28;20236;-81
2022/08/25 08:27:41;;;;;;;5.45;4.93;;;;;;;;;;5052659;28;20202;-81
2022/08/25 08:30:11;;;;;;;4.25;3.85;;;;;;;;;;5053716;28;20217;-81
2022/08/25 08:32:38;;;;;;;4.82;4.22;;;;;;;;;;5053367;28;20221;-81
2022/08/25 08:35:07;;;;;;;4.63;4.30;;;;;;;;;;5054265;28;20644;-80
2022/08/25 08:37:40;;;;;;;4.00;3.70;;;;;;;;;;5053839;28;20233;-81
2022/08/25 08:40:10;;;;;;;5.07;3.97;;;;;;;;;;5054125;28;20205;-81
2022/08/25 08:42:52;;;;;;;3.25;3.05;;;;;;;;;;5054746;28;20225;-81
2022/08/25 08:45:29;;;;;;;4.40;4.00;;;;;;;;;;5054823;28;20567;-81
2022/08/25 08:48:19;;;;;;;5.05;4.65;;;;;;;;;;5053932;28;20201;-80
2022/08/25 08:50:56;;;;;;;4.70;4.30;;;;;;;;;;5053819;28;20228;-81
2022/08/25 08:53:32;;;;;;;4.18;3.80;;;;;;;;;;5054311;28;20256;-81
2022/08/25 08:56:04;;;;;;;5.10;4.70;;;;;;;;;;5054654;28;20212;-81
2022/08/25 08:58:42;;;;;;;5.35;4.85;;;;;;;;;;5054573;28;20204;-81
2022/08/25 09:01:12;;;;;;;4.68;4.38;;;;;;;;;;5074020;28;20376;-81
2022/08/25 09:03:43;;;;;;;5.03;4.53;;;;;;;;;;5074722;28;20256;-81
2022/08/25 09:06:20;;;;;;;4.28;3.97;;;;;;;;;;5059284;28;20245;-81
2022/08/25 09:08:49;;;;;;;4.85;4.45;;;;;;;;;;5053409;28;20308;-81
2022/08/25 09:11:26;;;;;;;5.32;4.93;;;;;;;;;;5054272;28;20228;-81
2022/08/25 09:14:09;;;;;;;7.43;5.05;;;;;;;;;;5057159;28;20691;-80
2022/08/25 09:16:56;;;;;;;4.40;3.85;;;;;;;;;;5057947;28;20575;-81
2022/08/25 09:20:00;;;;;;;5.45;5.05;;;;;;;;;;5056949;28;20207;-81
2022/08/25 09:22:40;;;;;;;4.53;4.22;;;;;;;;;;5056494;28;20659;-80
2022/08/25 09:25:15;;;;;;;5.55;5.05;;;;;;;;;;5056335;28;20292;-81
2022/08/25 09:27:47;;;;;;;5.20;4.80;;;;;;;;;;5056228;28;20245;-81
2022/08/25 09:30:17;;;;;;;6.03;5.43;;;;;;;;;;5057372;28;20312;-82
2022/08/25 09:32:47;;;;;;;5.78;5.05;;;;;;;;;;5056125;28;20249;-82
2022/08/25 09:35:19;;;;;;;4.43;4.07;;;;;;;;;;5056912;28;20205;-81
2022/08/25 09:37:58;;;;;;;5.57;4.88;;;;;;;;;;5055320;28;20288;-80
2022/08/25 09:40:29;;;;;;;5.30;4.70;;;;;;;;;;5056311;28;20233;-81
2022/08/25 09:43:04;;;;;;;5.80;5.22;;;;;;;;;;5057054;28;20256;-81
2022/08/25 09:45:40;;;;;;;5.18;4.78;;;;;;;;;;5056029;28;20288;-81
2022/08/25 09:48:23;;;;;;;8.93;6.28;;;;;;;;;;5056239;28;20201;-84
2022/08/25 09:50:53;;;;;;;4.75;4.40;;;;;;;;;;5057046;28;20226;-81
2022/08/25 09:53:20;;;;;;;5.47;4.97;;;;;;;;;;5055966;28;20713;-82
2022/08/25 09:55:58;;;;;;;6.82;4.78;;;;;;;;;;5056170;28;20232;-82
2022/08/25 09:58:26;;;;;;;5.60;4.82;;;;;;;;;;5055580;28;20280;-81
2022/08/25 10:01:18;;;;;;;6.07;5.45;;;;;;;;;;5056296;28;20220;-81
2022/08/25 10:04:02;;;;;;;4.28;3.97;;;;;;;;;;5056074;28;20389;-81
2022/08/25 10:06:36;;;;;;;8.30;4.20;;;;;;;;;;5055438;28;20215;-81
2022/08/25 10:09:06;;;;;;;4.72;4.43;;;;;;;;;;5056054;28;20205;-81
2022/08/25 10:11:42;;;;;;;7.65;4.82;;;;;;;;;;5055983;28;20236;-82
2022/08/25 10:14:21;;;;;;;7.07;5.47;;;;;;;;;;5055735;28;20243;-82
2022/08/25 10:16:49;;;;;;;8.32;5.22;;;;;;;;;;5055603;28;20236;-81
2022/08/25 10:19:27;;;;;;;5.50;5.10;;;;;;;;;;5055797;28;20647;-80
2022/08/25 10:22:08;;;;;;;4.90;4.53;;;;;;;;;;5055512;28;20308;-82
2022/08/25 10:24:37;;;;;;;6.00;5.50;;;;;;;;;;5054431;28;20205;-80
2022/08/25 10:27:19;;;;;;;7.18;5.53;;;;;;;;;;5055507;28;20201;-82
2022/08/25 10:30:07;;;;;;;5.03;4.63;;;;;;;;;;5055352;28;20217;-82
2022/08/25 10:33:12;;;;;;;5.30;4.80;;;;;;;;;;5055611;28;20669;-80
2022/08/25 10:35:52;;;;;;;5.30;4.80;;;;;;;;;;4999134;28;20641;-81
2022/08/25 10:38:34;;;;;;;5.32;4.93;;;;;;;;;;5034999;28;20722;-82
2022/08/25 10:41:30;;;;;;;5.85;5.35;;;;;;;;;;5034824;28;20310;-82
2022/08/25 10:45:41;;;;;;;5.28;4.78;;;;;;;;;;5034908;28;20645;-81
2022/08/25 10:47:17;;;;;;;4.50;4.20;;;;;;;;;;5034588;28;20206;-82
2022/08/25 10:49:47;;;;;;;5.07;4.68;;;;;;;;;;5034843;28;20320;-82
2022/08/25 10:52:20;;;;;;;4.80;4.50;;;;;;;;;;5034774;28;20737;-82
2022/08/25 10:54:53;;;;;;;4.57;4.15;;;;;;;;;;5035936;28;20198;-81
2022/08/25 10:57:36;;;;;;;5.20;4.80;;;;;;;;;;5034724;28;20202;-82
2022/08/25 11:00:09;;;;;;;5.93;5.43;;;;;;;;;;5061458;28;20662;-82
2022/08/25 11:03:18;;;;;;;4.72;4.43;;;;;;;;;;5075006;28;20231;-82
2022/08/25 11:05:51;;;;;;;5.63;5.20;;;;;;;;;;5063959;28;20745;-82
2022/08/25 11:08:25;;;;;;;6.18;5.65;;;;;;;;;;5053948;28;20555;-81
2022/08/25 11:11:00;;;;;;;5.57;5.07;;;;;;;;;;5054286;28;20934;-81
2022/08/25 11:13:40;;;;;;;5.90;5.50;;;;;;;;;;5055099;28;20266;-83
2022/08/25 11:16:14;;;;;;;5.25;4.85;;;;;;;;;;5054220;28;20764;-82
2022/08/25 11:18:51;;;;;;;7.20;5.50;;;;;;;;;;5052730;28;20205;-81
2022/08/25 11:21:23;;;;;;;6.93;5.15;;;;;;;;;;5054889;28;20208;-83
2022/08/25 11:23:57;;;;;;;5.50;5.10;;;;;;;;;;5053969;28;20297;-82
2022/08/25 11:26:33;;;;;;;5.57;4.97;;;;;;;;;;5054191;28;20602;-82
2022/08/25 11:29:05;;;;;;;6.65;5.00;;;;;;;;;;5053754;28;20741;-82
2022/08/25 11:31:40;;;;;;;5.82;5.35;;;;;;;;;;5053784;28;20217;-82
2022/08/25 11:34:13;;;;;;;5.97;5.47;;;;;;;;;;5053362;28;20239;-82
2022/08/25 11:36:44;;;;;;;5.57;5.03;;;;;;;;;;5054575;28;20205;-82
2022/08/25 11:39:17;;;;;;;6.15;5.75;;;;;;;;;;5054351;28;20205;-83
2022/08/25 11:41:58;;;;;;;5.78;5.38;;;;;;;;;;5053392;28;20256;-81
2022/08/25 11:44:54;;;;;;;5.07;4.78;;;;;;;;;;5053524;28;20293;-81
2022/08/25 11:47:51;;;;;;;5.68;5.28;;;;;;;;;;5035734;28;20216;-82
2022/08/25 11:50:30;;;;;;;4.88;4.47;;;;;;;;;;5053510;28;20316;-82
2022/08/25 11:53:00;;;;;;;6.72;6.15;;;;;;;;;;5053233;28;20236;-82
2022/08/25 11:55:46;;;;;;;5.93;5.30;;;;;;;;;;5053400;28;20205;-82
2022/08/25 11:58:34;;;;;;;6.00;5.50;;;;;;;;;;5056093;28;20292;-82
2022/08/25 12:01:03;;;;;;;6.60;6.10;;;;;;;;;;5036589;28;20202;-82
2022/08/25 12:04:12;;;;;;;5.78;5.35;;;;;;;;;;5036167;28;20222;-82
2022/08/25 12:07:23;;;;;;;5.28;4.80;;;;;;;;;;5035575;28;20305;-82
2022/08/25 12:10:17;;;;;;;6.20;5.70;;;;;;;;;;5012542;28;20674;-81
2022/08/25 12:13:18;;;;;;;6.22;5.72;;;;;;;;;;5035937;28;20226;-82
2022/08/25 12:15:58;;;;;;;6.22;5.72;;;;;;;;;;5036541;28;20243;-82
2022/08/25 12:18:45;;;;;;;5.65;5.15;;;;;;;;;;5049312;28;20201;-83
2022/08/25 12:21:33;;;;;;;5.72;5.32;;;;;;;;;;5056672;28;20208;-83
2022/08/25 12:24:16;;;;;;;5.43;5.03;;;;;;;;;;5056282;28;20205;-82
2022/08/25 12:26:51;;;;;;;5.50;5.10;;;;;;;;;;5056293;28;20201;-83
2022/08/25 12:29:33;;;;;;;5.78;5.28;;;;;;;;;;5055618;28;20287;-82
2022/08/25 12:32:23;;;;;;;4.82;4.53;;;;;;;;;;5055630;28;20688;-82
2022/08/25 12:35:11;;;;;;;5.68;5.18;;;;;;;;;;5056062;28;20233;-82
2022/08/25 12:38:01;;;;;;;5.30;4.90;;;;;;;;;;5054878;28;20229;-83
2022/08/25 12:40:36;;;;;;;5.88;5.25;;;;;;;;;;5055857;28;20616;-82
2022/08/25 12:43:10;;;;;;;4.57;4.18;;;;;;;;;;5054675;28;20255;-82
2022/08/25 12:45:42;;;;;;;3.90;3.65;;;;;;;;;;5054801;28;20251;-82
2022/08/25 12:48:55;;;;;;;4.63;4.00;;;;;;;;;;5054219;28;20205;-82
2022/08/25 12:51:26;;;;;;;3.78;3.45;;;;;;;;;;5054083;28;20232;-82
2022/08/25 12:53:58;;;;;;;3.67;3.38;;;;;;;;;;5082479;22;20268;-81
2022/08/25 12:56:32;;;;;;;4.72;4.18;;;;;;;;;;5032669;28;20198;-80
2022/08/25 12:59:15;;;;;;;4.85;4.43;;;;;;;;;;5036851;28;20201;-81
2022/08/25 13:02:15;;;;;;;4.43;4.03;;;;;;;;;;5052210;28;20280;-80
2022/08/25 13:05:14;;;;;;;4.25;3.97;;;;;;;;;;5052123;28;20708;-81
2022/08/25 13:08:01;;;;;;;4.50;4.10;;;;;;;;;;5052093;28;20219;-80
2022/08/25 13:10:46;;;;;;;5.15;4.75;;;;;;;;;;5052027;28;20736;-83
2022/08/25 13:13:24;;;;;;;5.47;4.97;;;;;;;;;;5012560;28;20318;-84
2022/08/25 13:16:00;;;;;;;5.40;4.90;;;;;;;;;;5012668;28;20206;-80
2022/08/25 13:18:31;;;;;;;5.78;5.28;;;;;;;;;;5025607;28;20293;-80
2022/08/25 13:21:07;;;;;;;4.43;4.13;;;;;;;;;;5032315;28;20289;-81
2022/08/25 13:23:37;;;;;;;5.25;4.85;;;;;;;;;;5032000;28;20314;-80
2022/08/25 13:26:06;;;;;;;5.47;5.07;;;;;;;;;;5032377;28;20285;-81
2022/08/25 13:28:39;;;;;;;3.92;3.63;;;;;;;;;;5031850;28;20230;-81
2022/08/25 13:31:15;;;;;;;4.63;4.22;;;;;;;;;;5031979;28;20210;-80
2022/08/25 13:33:52;;;;;;;4.15;3.78;;;;;;;;;;5032289;28;20226;-79
2022/08/25 13:39:15;;;;;;;4.88;4.43;;;;;;;;;;5032092;28;20269;-79
2022/08/25 13:41:48;;;;;;;4.63;4.13;;;;;;;;;;5032402;28;20202;-79
2022/08/25 13:44:18;;;;;;;4.47;4.18;;;;;;;;;;5032082;28;20228;-79
2022/08/25 13:46:47;;;;;;;4.28;3.85;;;;;;;;;;5031998;28;20226;-80
2022/08/25 13:49:26;;;;;;;4.18;3.88;;;;;;;;;;5048914;28;20194;-80
2022/08/25 13:51:56;;;;;;;4.32;3.30;;;;;;;;;;5052039;28;20320;-79
2022/08/25 13:54:30;;;;;;;4.20;3.80;;;;;;;;;;5051475;28;20325;-81
2022/08/25 13:57:07;;;;;;;4.28;3.97;;;;;;;;;;5051923;28;20639;-80
2022/08/25 13:59:39;;;;;;;4.05;3.75;;;;;;;;;;5055925;28;20296;-80
2022/08/25 14:02:07;;;;;;;3.60;3.30;;;;;;;;;;5054912;28;20208;-79
2022/08/25 14:04:48;;;;;;;4.60;3.95;;;;;;;;;;5055331;28;20301;-79
2022/08/25 14:07:28;;;;;;;3.90;3.60;;;;;;;;;;5055701;28;20205;-79
2022/08/25 14:09:59;;;;;;;3.60;3.30;;;;;;;;;;5055021;28;20670;-81
2022/08/25 14:12:37;;;;;;;3.55;3.30;;;;;;;;;;5055111;28;20329;-80
2022/08/25 14:15:12;;;;;;;3.45;3.25;;;;;;;;;;5055301;28;20201;-79
2022/08/25 14:17:42;;;;;;;3.60;3.30;;;;;;;;;;5047718;28;20220;-80
2022/08/25 14:20:24;;;;;;;3.55;3.35;;;;;;;;;;5034940;28;20293;-79
2022/08/25 14:22:56;;;;;;;3.97;3.65;;;;;;;;;;5035391;28;20225;-80
2022/08/25 14:25:25;;;;;;;3.80;3.50;;;;;;;;;;5035083;28;20293;-79
2022/08/25 14:27:57;;;;;;;4.93;4.50;;;;;;;;;;5034838;28;20199;-81
2022/08/25 14:30:26;;;;;;;3.88;3.63;;;;;;;;;;5033882;28;20205;-80
2022/08/25 14:32:53;;;;;;;3.63;3.00;;;;;;;;;;5033895;28;20314;-81
2022/08/25 14:35:21;;;;;;;4.70;3.90;;;;;;;;;;5034405;28;20289;-80
2022/08/25 14:37:49;;;;;;;2.95;2.70;;;;;;;;;;5033748;28;20741;-80
2022/08/25 14:40:18;;;;;;;4.85;4.38;;;;;;;;;;5034779;28;20285;-79
2022/08/25 14:42:47;;;;;;;4.25;3.95;;;;;;;;;;5034537;28;20219;-81
2022/08/25 14:45:15;;;;;;;3.83;3.53;;;;;;;;;;5034962;28;20201;-78
2022/08/25 14:47:45;;;;;;;5.05;3.85;;;;;;;;;;5039651;28;20262;-80
2022/08/25 14:50:14;;;;;;;3.83;3.63;;;;;;;;;;5034351;28;20202;-79
2022/08/25 14:52:42;;;;;;;3.72;3.42;;;;;;;;;;5034478;28;20293;-81
2022/08/25 14:55:11;;;;;;;3.15;2.90;;;;;;;;;;5033986;28;20206;-80
2022/08/25 14:57:40;;;;;;;4.28;3.92;;;;;;;;;;5034318;28;20288;-80
2022/08/25 15:00:10;;;;;;;3.88;3.58;;;;;;;;;;5034064;28;20209;-80
2022/08/25 15:02:41;;;;;;;4.15;3.85;;;;;;;;;;5034450;28;20226;-80
2022/08/25 15:05:11;;;;;;;4.35;4.05;;;;;;;;;;5033935;28;20674;-80
2022/08/25 15:10:24;;;;;;;3.60;3.38;;;;;;;;;;5034187;28;20280;-81
2022/08/25 15:12:51;;;;;;;3.65;3.45;;;;;;;;;;5037172;28;20301;-80
2022/08/25 15:15:19;;;;;;;4.05;3.75;;;;;;;;;;5034086;28;20260;-81
2022/08/25 15:17:47;;;;;;;4.30;4.00;;;;;;;;;;5033456;28;20300;-79
2022/08/25 15:20:16;;;;;;;3.22;3.03;;;;;;;;;;5033281;28;20238;-79
2022/08/25 15:22:44;;;;;;;3.53;3.20;;;;;;;;;;5033838;28;20240;-80
2022/08/25 15:25:11;;;;;;;3.85;3.55;;;;;;;;;;5053405;28;20237;-78